sensor_id;sensor_type;location;lat;lon;timestamp;P1;durP1;ratioP1;P2;durP2;ratioP2
22851;SDS011;11592;45.460;9.240;2023-06-19T00:01:01;9.43;;;5.22;;
22851;SDS011;11592;45.460;9.240;2023-06-19T00:03:29;18.60;;;6.03;;
22851;SDS011;11592;45.460;9.240;2023-06-19T00:05:56;14.43;;;6.45;;
22851;SDS011;11592;45.460;9.240;2023-06-19T00:08:22;18.70;;;6.10;;
22851;SDS011;11592;45.460;9.240;2023-06-19T00:10:49;15.00;;;7.35;;
22851;SDS011;11592;45.460;9.240;2023-06-19T00:13:16;15.05;;;6.18;;
22851;SDS011;11592;45.460;9.240;2023-06-19T00:15:44;9.43;;;5.35;;
22851;SDS011;11592;45.460;9.240;2023-06-19T00:18:11;7.82;;;5.38;;
22851;SDS011;11592;45.460;9.240;2023-06-19T00:20:38;8.30;;;5.10;;
22851;SDS011;11592;45.460;9.240;2023-06-19T00:23:05;7.60;;;5.25;;
22851;SDS011;11592;45.460;9.240;2023-06-19T00:25:36;9.70;;;6.05;;
22851;SDS011;11592;45.460;9.240;2023-06-19T00:28:04;8.38;;;5.78;;
22851;SDS011;11592;45.460;9.240;2023-06-19T00:30:30;8.43;;;5.45;;
22851;SDS011;11592;45.460;9.240;2023-06-19T00:32:59;7.55;;;5.10;;
22851;SDS011;11592;45.460;9.240;2023-06-19T00:35:28;8.40;;;5.50;;
22851;SDS011;11592;45.460;9.240;2023-06-19T00:37:55;9.75;;;6.13;;
22851;SDS011;11592;45.460;9.240;2023-06-19T00:40:29;8.07;;;5.75;;
22851;SDS011;11592;45.460;9.240;2023-06-19T00:42:57;10.75;;;6.13;;
22851;SDS011;11592;45.460;9.240;2023-06-19T00:45:25;11.02;;;5.88;;
22851;SDS011;11592;45.460;9.240;2023-06-19T00:47:53;8.38;;;6.18;;
22851;SDS011;11592;45.460;9.240;2023-06-19T00:50:23;8.50;;;5.70;;
22851;SDS011;11592;45.460;9.240;2023-06-19T00:52:51;9.18;;;6.20;;
22851;SDS011;11592;45.460;9.240;2023-06-19T00:55:18;8.48;;;6.13;;
22851;SDS011;11592;45.460;9.240;2023-06-19T00:57:47;11.18;;;6.25;;
22851;SDS011;11592;45.460;9.240;2023-06-19T01:00:15;7.70;;;5.95;;
22851;SDS011;11592;45.460;9.240;2023-06-19T01:02:42;8.02;;;6.72;;
22851;SDS011;11592;45.460;9.240;2023-06-19T01:05:09;9.70;;;6.15;;
22851;SDS011;11592;45.460;9.240;2023-06-19T01:10:12;9.38;;;6.65;;
22851;SDS011;11592;45.460;9.240;2023-06-19T01:12:45;10.13;;;6.57;;
22851;SDS011;11592;45.460;9.240;2023-06-19T01:15:25;9.27;;;6.88;;
22851;SDS011;11592;45.460;9.240;2023-06-19T01:17:54;9.20;;;6.63;;
22851;SDS011;11592;45.460;9.240;2023-06-19T01:20:23;12.25;;;6.93;;
22851;SDS011;11592;45.460;9.240;2023-06-19T01:22:51;9.82;;;6.70;;
22851;SDS011;11592;45.460;9.240;2023-06-19T01:25:18;9.32;;;6.40;;
22851;SDS011;11592;45.460;9.240;2023-06-19T01:27:44;9.82;;;6.90;;
22851;SDS011;11592;45.460;9.240;2023-06-19T01:30:13;9.40;;;7.15;;
22851;SDS011;11592;45.460;9.240;2023-06-19T01:35:23;10.05;;;6.78;;
22851;SDS011;11592;45.460;9.240;2023-06-19T01:37:55;11.55;;;7.07;;
22851;SDS011;11592;45.460;9.240;2023-06-19T01:40:23;9.70;;;7.90;;
22851;SDS011;11592;45.460;9.240;2023-06-19T01:42:52;9.27;;;6.78;;
22851;SDS011;11592;45.460;9.240;2023-06-19T01:45:20;11.23;;;7.45;;
22851;SDS011;11592;45.460;9.240;2023-06-19T01:47:47;8.20;;;6.75;;
22851;SDS011;11592;45.460;9.240;2023-06-19T01:50:14;9.95;;;7.10;;
22851;SDS011;11592;45.460;9.240;2023-06-19T01:52:41;11.10;;;7.30;;
22851;SDS011;11592;45.460;9.240;2023-06-19T01:55:08;8.43;;;6.53;;
22851;SDS011;11592;45.460;9.240;2023-06-19T01:57:35;11.38;;;7.38;;
22851;SDS011;11592;45.460;9.240;2023-06-19T02:00:03;13.45;;;6.93;;
22851;SDS011;11592;45.460;9.240;2023-06-19T02:02:33;10.80;;;6.95;;
22851;SDS011;11592;45.460;9.240;2023-06-19T02:05:00;8.77;;;6.45;;
22851;SDS011;11592;45.460;9.240;2023-06-19T02:07:27;9.63;;;6.45;;
22851;SDS011;11592;45.460;9.240;2023-06-19T02:09:54;11.50;;;6.85;;
22851;SDS011;11592;45.460;9.240;2023-06-19T02:12:21;8.50;;;6.40;;
22851;SDS011;11592;45.460;9.240;2023-06-19T02:14:47;9.70;;;6.63;;
22851;SDS011;11592;45.460;9.240;2023-06-19T02:17:14;9.57;;;6.03;;
22851;SDS011;11592;45.460;9.240;2023-06-19T02:19:41;8.85;;;6.13;;
22851;SDS011;11592;45.460;9.240;2023-06-19T02:22:08;10.45;;;6.75;;
22851;SDS011;11592;45.460;9.240;2023-06-19T02:24:35;10.00;;;6.88;;
22851;SDS011;11592;45.460;9.240;2023-06-19T02:27:03;11.10;;;7.10;;
22851;SDS011;11592;45.460;9.240;2023-06-19T02:29:31;9.27;;;6.40;;
22851;SDS011;11592;45.460;9.240;2023-06-19T02:32:00;9.82;;;6.30;;
22851;SDS011;11592;45.460;9.240;2023-06-19T02:34:28;9.88;;;6.28;;
22851;SDS011;11592;45.460;9.240;2023-06-19T02:36:55;9.20;;;6.05;;
22851;SDS011;11592;45.460;9.240;2023-06-19T02:39:22;7.50;;;5.68;;
22851;SDS011;11592;45.460;9.240;2023-06-19T02:41:49;7.22;;;5.88;;
22851;SDS011;11592;45.460;9.240;2023-06-19T02:44:16;9.80;;;5.72;;
22851;SDS011;11592;45.460;9.240;2023-06-19T02:46:43;8.40;;;6.20;;
22851;SDS011;11592;45.460;9.240;2023-06-19T02:49:10;8.57;;;6.10;;
22851;SDS011;11592;45.460;9.240;2023-06-19T02:51:36;7.28;;;5.40;;
22851;SDS011;11592;45.460;9.240;2023-06-19T02:54:07;7.03;;;5.22;;
22851;SDS011;11592;45.460;9.240;2023-06-19T02:56:34;7.03;;;5.13;;
22851;SDS011;11592;45.460;9.240;2023-06-19T02:59:00;9.52;;;5.60;;
22851;SDS011;11592;45.460;9.240;2023-06-19T03:01:27;6.85;;;4.45;;
22851;SDS011;11592;45.460;9.240;2023-06-19T03:03:55;7.00;;;4.70;;
22851;SDS011;11592;45.460;9.240;2023-06-19T03:06:22;7.80;;;4.50;;
22851;SDS011;11592;45.460;9.240;2023-06-19T03:08:49;7.55;;;4.88;;
22851;SDS011;11592;45.460;9.240;2023-06-19T03:11:15;6.70;;;4.88;;
22851;SDS011;11592;45.460;9.240;2023-06-19T03:13:46;9.90;;;4.60;;
22851;SDS011;11592;45.460;9.240;2023-06-19T03:16:17;6.90;;;4.60;;
22851;SDS011;11592;45.460;9.240;2023-06-19T03:18:45;7.78;;;4.82;;
22851;SDS011;11592;45.460;9.240;2023-06-19T03:21:15;8.68;;;4.60;;
22851;SDS011;11592;45.460;9.240;2023-06-19T03:23:42;8.48;;;5.00;;
22851;SDS011;11592;45.460;9.240;2023-06-19T03:26:09;8.50;;;5.10;;
22851;SDS011;11592;45.460;9.240;2023-06-19T03:28:36;8.40;;;4.38;;
22851;SDS011;11592;45.460;9.240;2023-06-19T03:31:03;6.13;;;4.75;;
22851;SDS011;11592;45.460;9.240;2023-06-19T03:33:30;6.90;;;5.15;;
22851;SDS011;11592;45.460;9.240;2023-06-19T03:35:57;7.85;;;5.05;;
22851;SDS011;11592;45.460;9.240;2023-06-19T03:38:23;6.80;;;4.70;;
22851;SDS011;11592;45.460;9.240;2023-06-19T03:40:50;7.75;;;4.50;;
22851;SDS011;11592;45.460;9.240;2023-06-19T03:43:17;9.48;;;4.93;;
22851;SDS011;11592;45.460;9.240;2023-06-19T03:45:44;7.22;;;4.70;;
22851;SDS011;11592;45.460;9.240;2023-06-19T03:48:11;8.45;;;4.72;;
22851;SDS011;11592;45.460;9.240;2023-06-19T03:50:37;7.03;;;4.88;;
22851;SDS011;11592;45.460;9.240;2023-06-19T03:53:05;6.85;;;4.70;;
22851;SDS011;11592;45.460;9.240;2023-06-19T03:55:31;7.68;;;4.20;;
22851;SDS011;11592;45.460;9.240;2023-06-19T03:57:58;10.27;;;4.43;;
22851;SDS011;11592;45.460;9.240;2023-06-19T04:00:25;9.50;;;4.80;;
22851;SDS011;11592;45.460;9.240;2023-06-19T04:02:52;8.43;;;6.20;;
22851;SDS011;11592;45.460;9.240;2023-06-19T04:05:19;9.77;;;5.10;;
22851;SDS011;11592;45.460;9.240;2023-06-19T04:07:46;9.65;;;5.50;;
22851;SDS011;11592;45.460;9.240;2023-06-19T04:10:14;6.82;;;4.90;;
22851;SDS011;11592;45.460;9.240;2023-06-19T04:12:41;8.57;;;5.10;;
22851;SDS011;11592;45.460;9.240;2023-06-19T04:15:08;14.63;;;5.60;;
22851;SDS011;11592;45.460;9.240;2023-06-19T04:17:35;7.22;;;4.82;;
22851;SDS011;11592;45.460;9.240;2023-06-19T04:20:03;9.77;;;5.47;;
22851;SDS011;11592;45.460;9.240;2023-06-19T04:22:38;9.88;;;5.25;;
22851;SDS011;11592;45.460;9.240;2023-06-19T04:25:06;10.05;;;5.50;;
22851;SDS011;11592;45.460;9.240;2023-06-19T04:27:34;9.82;;;5.55;;
22851;SDS011;11592;45.460;9.240;2023-06-19T04:30:04;11.25;;;4.78;;
22851;SDS011;11592;45.460;9.240;2023-06-19T04:32:33;7.88;;;5.45;;
22851;SDS011;11592;45.460;9.240;2023-06-19T04:35:01;8.00;;;5.70;;
22851;SDS011;11592;45.460;9.240;2023-06-19T04:37:28;7.38;;;4.95;;
22851;SDS011;11592;45.460;9.240;2023-06-19T04:39:55;6.45;;;4.88;;
22851;SDS011;11592;45.460;9.240;2023-06-19T04:42:22;8.18;;;5.63;;
22851;SDS011;11592;45.460;9.240;2023-06-19T04:44:49;14.85;;;5.40;;
22851;SDS011;11592;45.460;9.240;2023-06-19T04:47:17;9.60;;;5.40;;
22851;SDS011;11592;45.460;9.240;2023-06-19T04:49:46;8.77;;;5.25;;
22851;SDS011;11592;45.460;9.240;2023-06-19T04:52:13;6.93;;;5.20;;
22851;SDS011;11592;45.460;9.240;2023-06-19T04:54:39;6.30;;;5.00;;
22851;SDS011;11592;45.460;9.240;2023-06-19T04:57:06;7.25;;;5.20;;
22851;SDS011;11592;45.460;9.240;2023-06-19T04:59:33;14.70;;;5.30;;
22851;SDS011;11592;45.460;9.240;2023-06-19T05:02:00;7.68;;;5.28;;
22851;SDS011;11592;45.460;9.240;2023-06-19T05:04:27;8.15;;;4.57;;
22851;SDS011;11592;45.460;9.240;2023-06-19T05:06:59;8.43;;;5.18;;
22851;SDS011;11592;45.460;9.240;2023-06-19T05:09:26;8.82;;;5.07;;
22851;SDS011;11592;45.460;9.240;2023-06-19T05:11:53;9.35;;;5.07;;
22851;SDS011;11592;45.460;9.240;2023-06-19T05:14:20;10.10;;;4.97;;
22851;SDS011;11592;45.460;9.240;2023-06-19T05:16:47;7.40;;;5.53;;
22851;SDS011;11592;45.460;9.240;2023-06-19T05:19:14;6.38;;;5.03;;
22851;SDS011;11592;45.460;9.240;2023-06-19T05:21:40;6.97;;;5.40;;
22851;SDS011;11592;45.460;9.240;2023-06-19T05:24:07;10.48;;;5.25;;
22851;SDS011;11592;45.460;9.240;2023-06-19T05:26:34;9.02;;;4.75;;
22851;SDS011;11592;45.460;9.240;2023-06-19T05:29:01;9.25;;;5.20;;
22851;SDS011;11592;45.460;9.240;2023-06-19T05:31:28;9.27;;;5.15;;
22851;SDS011;11592;45.460;9.240;2023-06-19T05:33:54;9.10;;;5.05;;
22851;SDS011;11592;45.460;9.240;2023-06-19T05:36:22;8.55;;;5.65;;
22851;SDS011;11592;45.460;9.240;2023-06-19T05:38:49;6.00;;;4.85;;
22851;SDS011;11592;45.460;9.240;2023-06-19T05:41:16;7.15;;;4.90;;
22851;SDS011;11592;45.460;9.240;2023-06-19T05:43:43;10.73;;;4.85;;
22851;SDS011;11592;45.460;9.240;2023-06-19T05:46:10;7.18;;;5.38;;
22851;SDS011;11592;45.460;9.240;2023-06-19T05:48:38;7.97;;;5.63;;
22851;SDS011;11592;45.460;9.240;2023-06-19T05:51:04;7.93;;;5.47;;
22851;SDS011;11592;45.460;9.240;2023-06-19T05:53:31;6.38;;;4.95;;
22851;SDS011;11592;45.460;9.240;2023-06-19T05:55:58;6.72;;;5.35;;
22851;SDS011;11592;45.460;9.240;2023-06-19T05:58:25;9.95;;;5.30;;
22851;SDS011;11592;45.460;9.240;2023-06-19T06:00:52;7.68;;;5.32;;
22851;SDS011;11592;45.460;9.240;2023-06-19T06:03:24;6.50;;;4.90;;
22851;SDS011;11592;45.460;9.240;2023-06-19T06:05:51;8.20;;;5.68;;
22851;SDS011;11592;45.460;9.240;2023-06-19T06:08:18;9.90;;;5.90;;
22851;SDS011;11592;45.460;9.240;2023-06-19T06:10:45;10.32;;;4.93;;
22851;SDS011;11592;45.460;9.240;2023-06-19T06:13:13;7.50;;;5.03;;
22851;SDS011;11592;45.460;9.240;2023-06-19T06:15:40;8.48;;;5.07;;
22851;SDS011;11592;45.460;9.240;2023-06-19T06:18:06;8.88;;;5.57;;
22851;SDS011;11592;45.460;9.240;2023-06-19T06:20:33;7.35;;;5.78;;
22851;SDS011;11592;45.460;9.240;2023-06-19T06:23:00;7.13;;;5.05;;
22851;SDS011;11592;45.460;9.240;2023-06-19T06:25:27;6.82;;;5.32;;
22851;SDS011;11592;45.460;9.240;2023-06-19T06:27:56;11.35;;;5.38;;
22851;SDS011;11592;45.460;9.240;2023-06-19T06:30:23;10.75;;;6.00;;
22851;SDS011;11592;45.460;9.240;2023-06-19T06:32:51;10.55;;;6.95;;
22851;SDS011;11592;45.460;9.240;2023-06-19T06:35:18;11.73;;;5.90;;
22851;SDS011;11592;45.460;9.240;2023-06-19T06:37:45;8.65;;;5.80;;
22851;SDS011;11592;45.460;9.240;2023-06-19T06:40:12;9.48;;;5.90;;
22851;SDS011;11592;45.460;9.240;2023-06-19T06:42:39;10.27;;;6.35;;
22851;SDS011;11592;45.460;9.240;2023-06-19T06:45:06;12.45;;;6.53;;
22851;SDS011;11592;45.460;9.240;2023-06-19T06:47:36;9.27;;;5.85;;
22851;SDS011;11592;45.460;9.240;2023-06-19T06:50:03;10.70;;;7.28;;
22851;SDS011;11592;45.460;9.240;2023-06-19T06:52:31;12.98;;;7.38;;
22851;SDS011;11592;45.460;9.240;2023-06-19T06:54:58;10.55;;;7.05;;
22851;SDS011;11592;45.460;9.240;2023-06-19T06:57:25;10.23;;;6.85;;
22851;SDS011;11592;45.460;9.240;2023-06-19T06:59:52;13.20;;;6.90;;
22851;SDS011;11592;45.460;9.240;2023-06-19T07:02:18;12.82;;;7.65;;
22851;SDS011;11592;45.460;9.240;2023-06-19T07:04:45;11.32;;;7.13;;
22851;SDS011;11592;45.460;9.240;2023-06-19T07:07:12;12.45;;;7.07;;
22851;SDS011;11592;45.460;9.240;2023-06-19T07:09:39;12.63;;;7.07;;
22851;SDS011;11592;45.460;9.240;2023-06-19T07:12:06;11.02;;;7.05;;
22851;SDS011;11592;45.460;9.240;2023-06-19T07:14:33;8.00;;;6.97;;
22851;SDS011;11592;45.460;9.240;2023-06-19T07:17:00;9.05;;;6.65;;
22851;SDS011;11592;45.460;9.240;2023-06-19T07:19:27;13.55;;;7.25;;
22851;SDS011;11592;45.460;9.240;2023-06-19T07:21:55;9.57;;;7.05;;
22851;SDS011;11592;45.460;9.240;2023-06-19T07:24:22;10.32;;;7.50;;
22851;SDS011;11592;45.460;9.240;2023-06-19T07:26:50;11.38;;;6.88;;
22851;SDS011;11592;45.460;9.240;2023-06-19T07:29:17;11.65;;;7.25;;
22851;SDS011;11592;45.460;9.240;2023-06-19T07:31:43;10.27;;;7.97;;
22851;SDS011;11592;45.460;9.240;2023-06-19T07:34:10;12.98;;;7.78;;
22851;SDS011;11592;45.460;9.240;2023-06-19T07:36:37;9.45;;;7.25;;
22851;SDS011;11592;45.460;9.240;2023-06-19T07:39:04;9.10;;;7.07;;
22851;SDS011;11592;45.460;9.240;2023-06-19T07:41:31;10.60;;;7.32;;
22851;SDS011;11592;45.460;9.240;2023-06-19T07:43:57;7.93;;;6.65;;
22851;SDS011;11592;45.460;9.240;2023-06-19T07:46:25;14.20;;;8.00;;
22851;SDS011;11592;45.460;9.240;2023-06-19T07:48:51;12.35;;;8.45;;
22851;SDS011;11592;45.460;9.240;2023-06-19T07:51:18;10.77;;;7.82;;
22851;SDS011;11592;45.460;9.240;2023-06-19T07:53:45;13.18;;;7.30;;
22851;SDS011;11592;45.460;9.240;2023-06-19T07:56:12;15.48;;;8.40;;
22851;SDS011;11592;45.460;9.240;2023-06-19T07:58:39;9.40;;;7.53;;
22851;SDS011;11592;45.460;9.240;2023-06-19T08:01:05;10.20;;;7.35;;
22851;SDS011;11592;45.460;9.240;2023-06-19T08:03:32;14.27;;;7.22;;
22851;SDS011;11592;45.460;9.240;2023-06-19T08:05:59;16.20;;;7.82;;
22851;SDS011;11592;45.460;9.240;2023-06-19T08:08:27;11.30;;;7.13;;
22851;SDS011;11592;45.460;9.240;2023-06-19T08:10:53;10.13;;;7.38;;
22851;SDS011;11592;45.460;9.240;2023-06-19T08:13:20;12.00;;;7.30;;
22851;SDS011;11592;45.460;9.240;2023-06-19T08:15:47;10.23;;;7.43;;
22851;SDS011;11592;45.460;9.240;2023-06-19T08:18:14;12.10;;;6.95;;
22851;SDS011;11592;45.460;9.240;2023-06-19T08:20:41;10.90;;;7.57;;
22851;SDS011;11592;45.460;9.240;2023-06-19T08:23:07;12.43;;;8.02;;
22851;SDS011;11592;45.460;9.240;2023-06-19T08:25:34;10.18;;;7.80;;
22851;SDS011;11592;45.460;9.240;2023-06-19T08:28:01;11.75;;;7.40;;
22851;SDS011;11592;45.460;9.240;2023-06-19T08:30:28;12.15;;;7.13;;
22851;SDS011;11592;45.460;9.240;2023-06-19T08:32:55;9.68;;;6.50;;
22851;SDS011;11592;45.460;9.240;2023-06-19T08:35:22;9.73;;;6.18;;
22851;SDS011;11592;45.460;9.240;2023-06-19T08:37:49;9.73;;;6.90;;
22851;SDS011;11592;45.460;9.240;2023-06-19T08:40:16;9.52;;;6.63;;
22851;SDS011;11592;45.460;9.240;2023-06-19T08:42:42;9.52;;;5.72;;
22851;SDS011;11592;45.460;9.240;2023-06-19T08:45:09;7.32;;;5.53;;
22851;SDS011;11592;45.460;9.240;2023-06-19T08:47:36;7.32;;;5.70;;
22851;SDS011;11592;45.460;9.240;2023-06-19T08:50:04;8.35;;;5.40;;
22851;SDS011;11592;45.460;9.240;2023-06-19T08:52:31;8.20;;;6.10;;
22851;SDS011;11592;45.460;9.240;2023-06-19T08:54:59;9.45;;;6.40;;
22851;SDS011;11592;45.460;9.240;2023-06-19T08:57:32;13.30;;;10.20;;
22851;SDS011;11592;45.460;9.240;2023-06-19T09:00:00;9.07;;;5.85;;
22851;SDS011;11592;45.460;9.240;2023-06-19T09:02:36;9.43;;;6.40;;
22851;SDS011;11592;45.460;9.240;2023-06-19T09:05:10;8.27;;;5.65;;
22851;SDS011;11592;45.460;9.240;2023-06-19T09:07:42;10.50;;;5.30;;
22851;SDS011;11592;45.460;9.240;2023-06-19T09:10:14;7.10;;;5.78;;
22851;SDS011;11592;45.460;9.240;2023-06-19T09:12:43;17.98;;;9.60;;
22851;SDS011;11592;45.460;9.240;2023-06-19T09:15:11;11.02;;;6.22;;
22851;SDS011;11592;45.460;9.240;2023-06-19T09:17:39;7.65;;;5.85;;
22851;SDS011;11592;45.460;9.240;2023-06-19T09:20:06;11.55;;;5.75;;
22851;SDS011;11592;45.460;9.240;2023-06-19T09:22:33;11.10;;;6.13;;
22851;SDS011;11592;45.460;9.240;2023-06-19T09:25:01;9.23;;;6.15;;
22851;SDS011;11592;45.460;9.240;2023-06-19T09:27:32;8.27;;;6.03;;
22851;SDS011;11592;45.460;9.240;2023-06-19T09:29:59;7.80;;;6.15;;
22851;SDS011;11592;45.460;9.240;2023-06-19T09:32:27;7.15;;;5.30;;
22851;SDS011;11592;45.460;9.240;2023-06-19T09:34:55;9.38;;;6.22;;
22851;SDS011;11592;45.460;9.240;2023-06-19T09:37:29;9.13;;;5.78;;
22851;SDS011;11592;45.460;9.240;2023-06-19T09:39:58;9.10;;;6.07;;
22851;SDS011;11592;45.460;9.240;2023-06-19T09:42:31;9.73;;;5.60;;
22851;SDS011;11592;45.460;9.240;2023-06-19T09:45:00;10.90;;;4.85;;
22851;SDS011;11592;45.460;9.240;2023-06-19T09:47:52;6.57;;;5.53;;
22851;SDS011;11592;45.460;9.240;2023-06-19T09:50:20;9.98;;;5.35;;
22851;SDS011;11592;45.460;9.240;2023-06-19T09:52:49;6.18;;;5.18;;
22851;SDS011;11592;45.460;9.240;2023-06-19T09:55:17;7.80;;;4.80;;
22851;SDS011;11592;45.460;9.240;2023-06-19T09:57:45;6.82;;;5.13;;
22851;SDS011;11592;45.460;9.240;2023-06-19T10:00:14;9.55;;;5.55;;
22851;SDS011;11592;45.460;9.240;2023-06-19T10:02:48;11.15;;;5.97;;
22851;SDS011;11592;45.460;9.240;2023-06-19T10:05:15;8.70;;;5.45;;
22851;SDS011;11592;45.460;9.240;2023-06-19T10:07:45;7.95;;;5.22;;
22851;SDS011;11592;45.460;9.240;2023-06-19T10:10:23;7.00;;;5.22;;
22851;SDS011;11592;45.460;9.240;2023-06-19T10:12:55;11.73;;;5.45;;
22851;SDS011;11592;45.460;9.240;2023-06-19T10:18:02;7.65;;;5.03;;
22851;SDS011;11592;45.460;9.240;2023-06-19T10:20:30;7.85;;;4.93;;
22851;SDS011;11592;45.460;9.240;2023-06-19T10:25:31;7.95;;;4.68;;
22851;SDS011;11592;45.460;9.240;2023-06-19T10:28:02;7.15;;;4.20;;
22851;SDS011;11592;45.460;9.240;2023-06-19T10:30:33;4.82;;;4.32;;
22851;SDS011;11592;45.460;9.240;2023-06-19T10:33:03;5.88;;;4.75;;
22851;SDS011;11592;45.460;9.240;2023-06-19T10:35:36;7.20;;;4.70;;
22851;SDS011;11592;45.460;9.240;2023-06-19T10:38:05;6.63;;;5.38;;
22851;SDS011;11592;45.460;9.240;2023-06-19T10:40:36;8.27;;;5.90;;
22851;SDS011;11592;45.460;9.240;2023-06-19T10:43:03;5.22;;;4.68;;
22851;SDS011;11592;45.460;9.240;2023-06-19T10:45:31;7.53;;;4.90;;
22851;SDS011;11592;45.460;9.240;2023-06-19T10:48:00;5.93;;;5.10;;
22851;SDS011;11592;45.460;9.240;2023-06-19T10:50:29;7.95;;;5.13;;
22851;SDS011;11592;45.460;9.240;2023-06-19T10:53:00;10.38;;;6.13;;
22851;SDS011;11592;45.460;9.240;2023-06-19T10:55:26;6.70;;;5.10;;
22851;SDS011;11592;45.460;9.240;2023-06-19T10:57:53;8.30;;;5.63;;
22851;SDS011;11592;45.460;9.240;2023-06-19T11:00:24;6.90;;;6.05;;
22851;SDS011;11592;45.460;9.240;2023-06-19T11:02:56;11.43;;;6.13;;
22851;SDS011;11592;45.460;9.240;2023-06-19T11:05:24;13.48;;;6.40;;
22851;SDS011;11592;45.460;9.240;2023-06-19T11:07:54;11.45;;;6.57;;
22851;SDS011;11592;45.460;9.240;2023-06-19T11:10:22;11.05;;;6.13;;
22851;SDS011;11592;45.460;9.240;2023-06-19T11:12:55;10.00;;;6.30;;
22851;SDS011;11592;45.460;9.240;2023-06-19T11:15:28;8.05;;;6.25;;
22851;SDS011;11592;45.460;9.240;2023-06-19T11:17:57;10.23;;;6.07;;
22851;SDS011;11592;45.460;9.240;2023-06-19T11:20:24;8.95;;;5.63;;
22851;SDS011;11592;45.460;9.240;2023-06-19T11:22:59;10.07;;;6.70;;
22851;SDS011;11592;45.460;9.240;2023-06-19T11:25:36;9.43;;;6.75;;
22851;SDS011;11592;45.460;9.240;2023-06-19T11:28:16;11.13;;;6.53;;
22851;SDS011;11592;45.460;9.240;2023-06-19T11:30:49;10.97;;;6.67;;
22851;SDS011;11592;45.460;9.240;2023-06-19T11:33:26;9.57;;;6.40;;
22851;SDS011;11592;45.460;9.240;2023-06-19T11:35:53;6.50;;;5.80;;
22851;SDS011;11592;45.460;9.240;2023-06-19T11:38:22;10.68;;;6.55;;
22851;SDS011;11592;45.460;9.240;2023-06-19T11:40:50;9.18;;;7.13;;
22851;SDS011;11592;45.460;9.240;2023-06-19T11:43:28;10.13;;;7.35;;
22851;SDS011;11592;45.460;9.240;2023-06-19T11:46:05;11.13;;;7.65;;
22851;SDS011;11592;45.460;9.240;2023-06-19T11:48:37;10.45;;;7.57;;
22851;SDS011;11592;45.460;9.240;2023-06-19T11:51:04;7.60;;;6.80;;
22851;SDS011;11592;45.460;9.240;2023-06-19T11:53:31;14.88;;;7.30;;
22851;SDS011;11592;45.460;9.240;2023-06-19T11:55:58;12.70;;;7.45;;
22851;SDS011;11592;45.460;9.240;2023-06-19T11:58:24;19.88;;;8.00;;
22851;SDS011;11592;45.460;9.240;2023-06-19T12:00:53;8.75;;;7.10;;
22851;SDS011;11592;45.460;9.240;2023-06-19T12:03:19;12.15;;;7.03;;
22851;SDS011;11592;45.460;9.240;2023-06-19T12:05:47;10.77;;;7.35;;
22851;SDS011;11592;45.460;9.240;2023-06-19T12:08:13;11.98;;;7.25;;
22851;SDS011;11592;45.460;9.240;2023-06-19T12:10:40;9.32;;;8.32;;
22851;SDS011;11592;45.460;9.240;2023-06-19T12:13:07;10.07;;;7.97;;
22851;SDS011;11592;45.460;9.240;2023-06-19T12:15:35;11.50;;;7.55;;
22851;SDS011;11592;45.460;9.240;2023-06-19T12:18:03;10.55;;;7.97;;
22851;SDS011;11592;45.460;9.240;2023-06-19T12:20:30;8.27;;;7.22;;
22851;SDS011;11592;45.460;9.240;2023-06-19T12:22:57;13.75;;;8.98;;
22851;SDS011;11592;45.460;9.240;2023-06-19T12:25:24;10.18;;;7.82;;
22851;SDS011;11592;45.460;9.240;2023-06-19T12:27:51;10.63;;;8.13;;
22851;SDS011;11592;45.460;9.240;2023-06-19T12:30:21;13.80;;;8.05;;
22851;SDS011;11592;45.460;9.240;2023-06-19T12:32:48;9.80;;;7.70;;
22851;SDS011;11592;45.460;9.240;2023-06-19T12:35:16;7.78;;;6.68;;
22851;SDS011;11592;45.460;9.240;2023-06-19T12:37:44;7.70;;;6.82;;
22851;SDS011;11592;45.460;9.240;2023-06-19T12:40:11;9.57;;;8.02;;
22851;SDS011;11592;45.460;9.240;2023-06-19T12:42:38;9.88;;;7.32;;
22851;SDS011;11592;45.460;9.240;2023-06-19T12:45:06;12.00;;;8.00;;
22851;SDS011;11592;45.460;9.240;2023-06-19T12:47:33;13.05;;;7.22;;
22851;SDS011;11592;45.460;9.240;2023-06-19T12:49:59;11.88;;;7.60;;
22851;SDS011;11592;45.460;9.240;2023-06-19T12:52:26;8.98;;;7.10;;
22851;SDS011;11592;45.460;9.240;2023-06-19T12:54:53;10.25;;;7.03;;
22851;SDS011;11592;45.460;9.240;2023-06-19T12:57:20;8.95;;;7.47;;
22851;SDS011;11592;45.460;9.240;2023-06-19T12:59:47;10.02;;;8.00;;
22851;SDS011;11592;45.460;9.240;2023-06-19T13:02:14;12.13;;;6.90;;
22851;SDS011;11592;45.460;9.240;2023-06-19T13:04:41;11.00;;;7.63;;
22851;SDS011;11592;45.460;9.240;2023-06-19T13:07:08;12.07;;;7.43;;
22851;SDS011;11592;45.460;9.240;2023-06-19T13:09:35;6.80;;;6.10;;
22851;SDS011;11592;45.460;9.240;2023-06-19T13:12:02;8.52;;;6.97;;
22851;SDS011;11592;45.460;9.240;2023-06-19T13:14:29;7.57;;;6.00;;
22851;SDS011;11592;45.460;9.240;2023-06-19T13:16:58;6.65;;;5.95;;
22851;SDS011;11592;45.460;9.240;2023-06-19T13:19:26;8.32;;;5.63;;
22851;SDS011;11592;45.460;9.240;2023-06-19T13:21:52;6.80;;;5.80;;
22851;SDS011;11592;45.460;9.240;2023-06-19T13:24:19;6.90;;;6.00;;
22851;SDS011;11592;45.460;9.240;2023-06-19T13:26:46;7.25;;;5.80;;
22851;SDS011;11592;45.460;9.240;2023-06-19T13:29:14;9.13;;;5.65;;
22851;SDS011;11592;45.460;9.240;2023-06-19T13:31:41;5.90;;;5.05;;
22851;SDS011;11592;45.460;9.240;2023-06-19T13:34:08;5.93;;;5.32;;
22851;SDS011;11592;45.460;9.240;2023-06-19T13:36:35;6.60;;;5.38;;
22851;SDS011;11592;45.460;9.240;2023-06-19T13:39:02;7.47;;;5.90;;
22851;SDS011;11592;45.460;9.240;2023-06-19T13:41:30;8.07;;;6.20;;
22851;SDS011;11592;45.460;9.240;2023-06-19T13:43:59;6.45;;;5.72;;
22851;SDS011;11592;45.460;9.240;2023-06-19T13:46:26;8.35;;;5.47;;
22851;SDS011;11592;45.460;9.240;2023-06-19T13:48:54;7.45;;;5.60;;
22851;SDS011;11592;45.460;9.240;2023-06-19T13:51:21;11.07;;;5.78;;
22851;SDS011;11592;45.460;9.240;2023-06-19T13:53:49;10.95;;;5.35;;
22851;SDS011;11592;45.460;9.240;2023-06-19T13:56:17;5.88;;;5.32;;
22851;SDS011;11592;45.460;9.240;2023-06-19T13:58:44;9.88;;;6.30;;
22851;SDS011;11592;45.460;9.240;2023-06-19T14:01:11;6.53;;;5.30;;
22851;SDS011;11592;45.460;9.240;2023-06-19T14:03:38;7.13;;;5.32;;
22851;SDS011;11592;45.460;9.240;2023-06-19T14:06:08;8.32;;;5.32;;
22851;SDS011;11592;45.460;9.240;2023-06-19T14:08:35;6.60;;;5.53;;
22851;SDS011;11592;45.460;9.240;2023-06-19T14:11:02;7.22;;;5.30;;
22851;SDS011;11592;45.460;9.240;2023-06-19T14:13:29;5.70;;;5.00;;
22851;SDS011;11592;45.460;9.240;2023-06-19T14:15:56;6.00;;;4.97;;
22851;SDS011;11592;45.460;9.240;2023-06-19T14:18:23;6.38;;;5.50;;
22851;SDS011;11592;45.460;9.240;2023-06-19T14:20:49;10.70;;;5.38;;
22851;SDS011;11592;45.460;9.240;2023-06-19T14:23:16;6.53;;;5.10;;
22851;SDS011;11592;45.460;9.240;2023-06-19T14:25:43;7.03;;;5.10;;
22851;SDS011;11592;45.460;9.240;2023-06-19T14:28:10;6.32;;;5.60;;
22851;SDS011;11592;45.460;9.240;2023-06-19T14:30:37;8.38;;;5.53;;
22851;SDS011;11592;45.460;9.240;2023-06-19T14:33:05;7.32;;;5.22;;
22851;SDS011;11592;45.460;9.240;2023-06-19T14:35:32;6.25;;;5.60;;
22851;SDS011;11592;45.460;9.240;2023-06-19T14:37:59;9.65;;;5.32;;
22851;SDS011;11592;45.460;9.240;2023-06-19T14:40:25;11.05;;;5.95;;
22851;SDS011;11592;45.460;9.240;2023-06-19T14:42:53;5.63;;;5.13;;
22851;SDS011;11592;45.460;9.240;2023-06-19T14:45:19;9.10;;;5.55;;
22851;SDS011;11592;45.460;9.240;2023-06-19T14:47:46;7.90;;;5.50;;
22851;SDS011;11592;45.460;9.240;2023-06-19T14:50:13;8.57;;;5.35;;
22851;SDS011;11592;45.460;9.240;2023-06-19T14:52:40;7.00;;;5.80;;
22851;SDS011;11592;45.460;9.240;2023-06-19T14:55:07;9.65;;;5.75;;
22851;SDS011;11592;45.460;9.240;2023-06-19T14:57:34;6.55;;;5.30;;